Time;durP1;ratioP1;P1;durP2;ratioP2;P2;SDS_P1;SDS_P2;PMS_P1;PMS_P2;Temp;Humidity;BMP_temperature;BMP_pressure;BME280_temperature;BME280_humidity;BME280_pressure;Samples;Min_cycle;Max_cycle;Signal;HPM_P1;HPM_P2
2021/01/13 00:02:27;;;;;;;15.35;2.15;;;;;;;2.08;100.00;100167.78;5225997;28;20097;-80
2021/01/13 00:04:57;;;;;;;20.77;2.08;;;;;;;2.02;100.00;100162.69;5226262;28;20044;-80
2021/01/13 00:07:27;;;;;;;17.58;2.22;;;;;;;2.00;100.00;100161.84;5210375;28;20475;-80
2021/01/13 00:09:57;;;;;;;16.58;2.28;;;;;;;2.08;100.00;100162.63;5207746;28;20075;-80
2021/01/13 00:12:28;;;;;;;16.08;2.13;;;;;;;1.98;100.00;100161.03;5225523;28;20029;-82
2021/01/13 00:14:59;;;;;;;12.95;2.10;;;;;;;2.04;100.00;100155.81;5225209;28;20140;-82
2021/01/13 00:17:29;;;;;;;14.95;2.15;;;;;;;2.03;100.00;100157.50;5224833;28;20029;-78
2021/01/13 00:19:59;;;;;;;15.38;1.92;;;;;;;1.98;100.00;100155.88;5225014;28;20036;-79
2021/01/13 00:22:29;;;;;;;12.38;1.83;;;;;;;1.97;100.00;100160.16;5224944;28;20035;-81
2021/01/13 00:25:00;;;;;;;20.08;2.38;;;;;;;1.94;100.00;100156.72;5223010;28;21232;-80
2021/01/13 00:27:33;;;;;;;14.07;2.05;;;;;;;1.94;100.00;100159.31;5224402;28;20094;-80
2021/01/13 00:30:04;;;;;;;14.90;2.00;;;;;;;1.94;100.00;100162.75;5223458;28;20106;-82
2021/01/13 00:32:35;;;;;;;9.60;1.58;;;;;;;1.94;100.00;100169.63;5225207;28;20029;-80
2021/01/13 00:35:06;;;;;;;16.92;1.77;;;;;;;1.87;100.00;100166.25;5224632;28;20047;-79
2021/01/13 00:37:37;;;;;;;14.73;2.20;;;;;;;1.88;100.00;100177.41;5223119;28;20020;-82
2021/01/13 00:40:09;;;;;;;9.35;1.80;;;;;;;1.96;100.00;100179.06;5223416;28;20028;-79
2021/01/13 00:42:43;;;;;;;13.15;2.05;;;;;;;1.93;100.00;100185.94;5224691;28;20027;-81
2021/01/13 00:45:16;;;;;;;16.10;1.90;;;;;;;1.93;100.00;100180.78;5203920;28;20694;-82
2021/01/13 00:47:50;;;;;;;10.85;1.60;;;;;;;1.87;100.00;100176.56;5220652;28;20651;-80
2021/01/13 00:50:21;;;;;;;17.58;1.70;;;;;;;1.91;100.00;100179.94;5224567;28;20039;-81
2021/01/13 00:52:51;;;;;;;13.35;1.58;;;;;;;1.91;100.00;100185.09;5221785;28;20060;-81
2021/01/13 00:55:21;;;;;;;20.10;2.97;;;;;;;1.92;100.00;100169.66;5224191;28;20060;-80
2021/01/13 00:57:52;;;;;;;14.98;1.70;;;;;;;1.86;100.00;100173.97;5224067;28;20025;-79
2021/01/13 01:00:22;;;;;;;13.90;1.65;;;;;;;1.83;100.00;100169.69;5224601;28;20031;-81
2021/01/13 01:02:53;;;;;;;16.55;1.88;;;;;;;1.87;100.00;100166.25;5224273;28;20496;-78
2021/01/13 01:05:23;;;;;;;13.15;1.70;;;;;;;1.92;100.00;100173.94;5224828;28;20048;-78
2021/01/13 01:07:53;;;;;;;14.20;1.83;;;;;;;1.87;100.00;100179.13;5224216;28;20025;-78
2021/01/13 01:10:29;;;;;;;12.73;1.58;;;;;;;1.92;100.00;100181.66;5224153;28;20048;-82
2021/01/13 01:13:00;;;;;;;13.55;1.60;;;;;;;1.92;100.00;100184.22;5223720;28;20025;-81
2021/01/13 01:15:31;;;;;;;15.20;1.98;;;;;;;1.87;100.00;100191.16;5223957;28;20035;-80
2021/01/13 01:18:01;;;;;;;13.95;1.77;;;;;;;1.94;100.00;100203.09;5221135;28;20028;-79
2021/01/13 01:20:32;;;;;;;13.95;1.90;;;;;;;1.87;100.00;100197.16;5208113;28;20020;-81
2021/01/13 01:23:02;;;;;;;12.57;1.77;;;;;;;1.92;100.00;100210.00;5231792;28;20124;-85
2021/01/13 01:25:32;;;;;;;15.43;1.90;;;;;;;1.94;100.00;100208.25;5220460;28;20079;-80
2021/01/13 01:28:04;;;;;;;20.85;1.80;;;;;;;2.01;100.00;100202.22;5220015;28;20033;-84
2021/01/13 01:30:35;;;;;;;16.17;2.15;;;;;;;1.89;100.00;100210.00;5223710;28;20061;-80
2021/01/13 01:33:05;;;;;;;8.88;1.30;;;;;;;1.93;100.00;100216.84;5222944;28;20048;-80
2021/01/13 01:35:35;;;;;;;15.20;1.60;;;;;;;1.96;100.00;100216.84;5223791;28;20513;-82
2021/01/13 01:38:05;;;;;;;10.23;1.60;;;;;;;1.82;100.00;100219.50;5217734;28;20104;-81
2021/01/13 01:40:36;;;;;;;11.30;1.60;;;;;;;1.88;100.00;100218.63;5227496;28;20135;-82
2021/01/13 01:43:06;;;;;;;12.65;1.75;;;;;;;1.77;100.00;100219.56;5233977;28;20067;-81
2021/01/13 01:45:37;;;;;;;15.95;1.92;;;;;;;1.81;100.00;100216.97;5225435;28;20087;-78
2021/01/13 01:48:16;;;;;;;13.40;1.75;;;;;;;1.69;100.00;100227.31;5222952;28;20028;-81
2021/01/13 01:50:47;;;;;;;11.02;2.00;;;;;;;1.61;100.00;100223.06;5222853;28;20487;-80
2021/01/13 01:53:21;;;;;;;9.73;1.83;;;;;;;1.53;100.00;100228.25;5222700;28;20032;-79
2021/01/13 01:56:08;;;;;;;14.13;2.08;;;;;;;1.62;100.00;100229.94;5221653;28;20029;-82
2021/01/13 01:58:39;;;;;;;14.73;1.80;;;;;;;1.73;100.00;100217.88;5222464;28;20028;-79
2021/01/13 02:01:10;;;;;;;11.45;2.00;;;;;;;1.78;100.00;100219.53;5222933;28;20087;-79
2021/01/13 02:03:53;;;;;;;18.65;2.53;;;;;;;1.83;100.00;100230.69;5222712;28;20017;-79
2021/01/13 02:06:31;;;;;;;17.13;2.33;;;;;;;1.88;100.00;100234.06;5223081;28;20040;-83
2021/01/13 02:09:01;;;;;;;15.68;2.38;;;;;;;1.95;100.00;100233.16;5227888;28;20028;-78
2021/01/13 02:11:33;;;;;;;14.88;2.50;;;;;;;1.93;100.00;100232.31;5234189;28;20017;-82
2021/01/13 02:14:03;;;;;;;15.98;2.85;;;;;;;2.04;100.00;100222.78;5207221;28;20025;-79
2021/01/13 02:16:33;;;;;;;21.00;3.13;;;;;;;2.02;100.00;100222.78;5226630;28;20500;-79
2021/01/13 02:19:33;;;;;;;14.02;3.17;;;;;;;2.08;100.00;100222.78;5224999;28;20035;-80
2021/01/13 02:22:10;;;;;;;22.13;2.58;;;;;;;2.00;100.00;100229.69;5228557;28;20060;-80
2021/01/13 02:25:12;;;;;;;13.68;2.17;;;;;;;2.00;100.00;100231.41;5221621;28;20027;-83
2021/01/13 02:27:48;;;;;;;11.70;2.45;;;;;;;2.06;100.00;100231.38;5206326;28;20619;-80
2021/01/13 02:30:23;;;;;;;18.45;2.60;;;;;;;1.92;100.00;100226.31;5201806;28;20504;-79
2021/01/13 02:32:59;;;;;;;17.92;2.28;;;;;;;1.96;100.00;100222.84;5201957;28;20112;-79
2021/01/13 02:35:56;;;;;;;14.68;2.58;;;;;;;1.97;100.00;100218.56;5184003;28;20044;-82
2021/01/13 02:38:32;;;;;;;12.27;2.33;;;;;;;1.83;100.00;100223.78;5217300;28;20025;-82
2021/01/13 02:41:12;;;;;;;16.23;3.15;;;;;;;1.84;100.00;100222.91;5222249;28;20025;-80
2021/01/13 02:43:53;;;;;;;16.02;2.30;;;;;;;1.92;100.00;100217.72;5222112;28;20602;-81
2021/01/13 02:47:10;;;;;;;10.98;2.13;;;;;;;1.96;100.00;100222.00;5222170;28;20029;-79
2021/01/13 02:49:50;;;;;;;15.57;2.88;;;;;;;1.92;100.00;100228.91;5217895;28;20124;-79
2021/01/13 02:52:24;;;;;;;14.90;2.22;;;;;;;1.87;100.00;100222.94;5222322;28;20035;-81
2021/01/13 02:54:55;;;;;;;14.73;2.58;;;;;;;1.85;100.00;100227.22;5227560;28;20471;-78
2021/01/13 02:57:28;;;;;;;16.23;2.17;;;;;;;1.77;100.00;100222.97;5222000;28;20059;-81
2021/01/13 02:59:58;;;;;;;18.70;2.55;;;;;;;1.87;100.00;100224.63;5222750;28;20032;-78
2021/01/13 03:02:35;;;;;;;14.43;2.33;;;;;;;1.75;100.00;100224.69;5206418;28;20387;-79
2021/01/13 03:05:07;;;;;;;14.57;2.25;;;;;;;1.69;100.00;100222.16;5226234;28;20043;-83
2021/01/13 03:07:38;;;;;;;14.48;1.80;;;;;;;1.75;100.00;100221.28;5226063;28;20053;-80
2021/01/13 03:10:11;;;;;;;15.10;2.50;;;;;;;1.66;100.00;100222.19;5208289;28;20056;-82
2021/01/13 03:12:41;;;;;;;21.05;2.17;;;;;;;1.72;100.00;100219.56;5226235;28;20025;-78
2021/01/13 03:15:12;;;;;;;15.18;2.22;;;;;;;1.64;100.00;100217.91;5225992;28;20542;-78
2021/01/13 03:18:02;;;;;;;12.45;2.08;;;;;;;1.66;100.00;100218.75;5226328;28;20483;-79
2021/01/13 03:20:59;;;;;;;13.20;2.13;;;;;;;1.63;100.00;100221.34;5225515;28;20652;-80
2021/01/13 03:24:07;;;;;;;21.48;2.45;;;;;;;1.61;100.00;100213.63;5225585;28;20040;-82
2021/01/13 03:26:42;;;;;;;17.30;2.80;;;;;;;1.58;100.00;100218.78;5225994;28;20029;-80
2021/01/13 03:29:18;;;;;;;15.45;2.38;;;;;;;1.57;100.00;100211.94;5225832;28;20091;-78
2021/01/13 03:32:04;;;;;;;14.50;2.33;;;;;;;1.64;100.00;100220.47;5225376;28;20024;-78
2021/01/13 03:34:53;;;;;;;;;;;;;;;1.57;100.00;100222.22;5225881;28;20076;-83
2021/01/13 03:37:25;;;;;;;14.82;2.80;;;;;;;1.53;100.00;100222.25;5224913;28;19909;-79
2021/01/13 03:39:55;;;;;;;15.52;2.22;;;;;;;1.52;100.00;100223.13;5224194;28;20029;-79
2021/01/13 03:42:31;;;;;;;20.98;2.20;;;;;;;1.56;100.00;100224.84;5225503;28;20024;-77
2021/01/13 03:45:06;;;;;;;15.75;2.63;;;;;;;1.55;100.00;100226.53;5217604;28;20066;-78
2021/01/13 03:47:39;;;;;;;23.02;2.80;;;;;;;1.52;100.00;100229.13;5225034;28;20155;-81
2021/01/13 03:50:11;;;;;;;13.02;2.10;;;;;;;1.53;100.00;100225.69;5225433;28;20380;-79
2021/01/13 03:53:01;;;;;;;19.13;2.47;;;;;;;1.64;100.00;100223.06;5224994;28;20067;-78
2021/01/13 03:55:34;;;;;;;19.13;2.72;;;;;;;1.59;100.00;100225.66;5225357;28;20567;-81
2021/01/13 03:58:52;;;;;;;16.95;2.42;;;;;;;1.72;100.00;100226.47;5225235;28;20104;-80
2021/01/13 04:01:54;;;;;;;12.95;2.28;;;;;;;1.77;100.00;100228.13;5194343;28;20037;-80
2021/01/13 04:04:44;;;;;;;12.95;2.20;;;;;;;1.58;100.00;100223.09;5224441;28;20033;-80
2021/01/13 04:07:15;;;;;;;22.52;2.78;;;;;;;1.57;100.00;100222.22;5224773;28;20112;-80
2021/01/13 04:09:46;;;;;;;19.27;2.97;;;;;;;1.62;100.00;100217.94;5223995;28;20024;-79
2021/01/13 04:12:20;;;;;;;17.98;2.80;;;;;;;1.56;100.00;100215.38;5223949;28;20055;-79
2021/01/13 04:14:57;;;;;;;13.77;2.20;;;;;;;1.57;100.00;100211.94;5224675;28;20025;-79
2021/01/13 04:17:28;;;;;;;21.15;2.55;;;;;;;1.65;100.00;100206.75;5224719;28;20718;-79
2021/01/13 04:19:58;;;;;;;13.13;2.63;;;;;;;1.59;100.00;100214.50;5225321;28;20068;-79
2021/01/13 04:22:29;;;;;;;19.00;2.67;;;;;;;1.60;100.00;100213.66;5224098;28;20127;-79
2021/01/13 04:24:59;;;;;;;12.00;2.30;;;;;;;1.54;100.00;100219.69;5222666;28;20519;-79
2021/01/13 04:27:30;;;;;;;17.17;2.63;;;;;;;1.51;100.00;100217.13;5224491;28;20408;-79
2021/01/13 04:30:01;;;;;;;12.60;1.90;;;;;;;1.62;100.00;100214.50;5224462;28;20029;-80
2021/01/13 04:32:32;;;;;;;24.27;2.60;;;;;;;1.71;100.00;100217.88;5224707;28;20154;-80
2021/01/13 04:35:04;;;;;;;18.38;2.63;;;;;;;1.89;100.00;100218.63;5224936;28;20070;-80
2021/01/13 04:37:34;;;;;;;20.15;2.50;;;;;;;1.94;100.00;100203.09;5221765;28;20025;-80
2021/01/13 04:40:23;;;;;;;17.48;2.45;;;;;;;2.04;100.00;100207.34;5224545;28;20029;-80
2021/01/13 04:43:03;;;;;;;20.13;2.50;;;;;;;2.01;100.00;100195.31;5224505;28;20036;-80
2021/01/13 04:45:44;;;;;;;17.25;2.38;;;;;;;2.13;100.00;100205.53;5224484;28;20383;-80
2021/01/13 04:48:17;;;;;;;17.30;2.50;;;;;;;2.02;100.00;100202.19;5224220;28;20571;-80
2021/01/13 04:50:49;;;;;;;15.32;2.35;;;;;;;2.11;100.00;100199.56;5227784;28;20092;-80
2021/01/13 04:53:21;;;;;;;14.18;2.40;;;;;;;2.12;100.00;100209.00;5227423;28;20558;-80
2021/01/13 04:55:56;;;;;;;19.75;2.70;;;;;;;2.11;100.00;100199.56;5226246;28;20147;-79
2021/01/13 04:58:26;;;;;;;14.82;2.53;;;;;;;2.15;100.00;100195.25;5223461;28;20056;-79
2021/01/13 05:01:13;;;;;;;14.75;2.85;;;;;;;2.14;100.00;100193.53;5225123;28;20025;-80
2021/01/13 05:04:06;;;;;;;16.25;2.88;;;;;;;2.22;100.00;100189.16;5223806;28;20021;-79
2021/01/13 05:07:13;;;;;;;23.45;2.60;;;;;;;2.16;100.00;100186.63;5224209;28;20041;-79
2021/01/13 05:10:00;;;;;;;21.75;2.72;;;;;;;2.26;100.00;100188.25;5193401;28;20040;-79
2021/01/13 05:12:48;;;;;;;18.13;2.60;;;;;;;2.28;100.00;100195.13;5225075;28;20032;-80
2021/01/13 05:15:18;;;;;;;18.88;2.35;;;;;;;2.26;100.00;100191.69;5224560;28;20036;-79
2021/01/13 05:18:07;;;;;;;15.75;2.38;;;;;;;2.25;100.00;100186.53;5224489;28;20029;-80
2021/01/13 05:20:42;;;;;;;19.33;2.70;;;;;;;2.21;100.00;100195.16;5220312;28;20029;-79
2021/01/13 05:23:13;;;;;;;16.95;2.55;;;;;;;2.28;100.00;100191.66;5223010;28;20048;-80
2021/01/13 05:25:50;;;;;;;16.67;2.33;;;;;;;2.36;100.00;100183.00;5224128;28;20131;-80
2021/01/13 05:28:26;;;;;;;18.30;2.47;;;;;;;2.34;100.00;100173.59;5223912;28;20029;-80
2021/01/13 05:30:58;;;;;;;23.50;3.03;;;;;;;2.31;100.00;100184.75;5223318;28;20110;-79
2021/01/13 05:33:32;;;;;;;19.42;2.80;;;;;;;2.23;100.00;100171.09;5208343;28;20033;-79
2021/01/13 05:36:05;;;;;;;18.70;2.83;;;;;;;2.25;100.00;100177.09;5224356;28;20028;-80
2021/01/13 05:38:38;;;;;;;20.67;3.15;;;;;;;2.26;100.00;100172.78;5223385;28;20029;-80
2021/01/13 05:41:10;;;;;;;18.60;2.90;;;;;;;2.21;100.00;100169.41;5224253;28;20091;-80
2021/01/13 05:43:49;;;;;;;18.88;3.20;;;;;;;2.24;100.00;100166.78;5216040;28;20135;-80
2021/01/13 05:46:20;;;;;;;20.60;3.10;;;;;;;2.23;100.00;100165.09;5221633;28;20403;-80
2021/01/13 05:48:53;;;;;;;19.38;2.50;;;;;;;2.22;100.00;100164.25;5223392;28;20074;-80
2021/01/13 05:51:30;;;;;;;14.77;2.55;;;;;;;2.20;100.00;100155.66;5221838;28;20068;-80
2021/01/13 05:54:02;;;;;;;11.77;2.50;;;;;;;2.22;100.00;100153.06;5221629;28;20036;-80
2021/01/13 05:56:37;;;;;;;24.90;3.10;;;;;;;2.23;100.00;100153.06;5220498;28;20048;-80
2021/01/13 05:59:11;;;;;;;16.23;2.90;;;;;;;2.25;100.00;100155.63;5222616;28;20028;-80
2021/01/13 06:01:43;;;;;;;11.73;2.08;;;;;;;2.30;100.00;100154.69;5223875;28;20307;-80
2021/01/13 06:04:17;;;;;;;17.05;2.75;;;;;;;2.36;100.00;100157.22;5219491;28;20017;-80
2021/01/13 06:06:50;;;;;;;17.33;2.53;;;;;;;2.25;100.00;100153.03;5203691;28;20052;-80
2021/01/13 06:09:22;;;;;;;14.13;2.50;;;;;;;2.34;100.00;100150.38;5216860;28;20025;-80
2021/01/13 06:11:54;;;;;;;14.38;2.47;;;;;;;2.26;100.00;100145.31;5205305;28;20025;-80
2021/01/13 06:14:26;;;;;;;22.23;2.70;;;;;;;2.35;100.00;100159.81;5220339;28;20426;-80
2021/01/13 06:17:04;;;;;;;14.55;2.53;;;;;;;2.28;100.00;100158.16;5223403;28;20025;-80
2021/01/13 06:19:35;;;;;;;16.70;2.58;;;;;;;2.31;100.00;100150.41;5226460;28;20052;-80
2021/01/13 06:22:11;;;;;;;17.00;3.28;;;;;;;2.29;100.00;100152.13;5226449;28;20072;-80
2021/01/13 06:24:42;;;;;;;12.38;2.30;;;;;;;2.22;100.00;100158.22;5225140;28;20013;-80
2021/01/13 06:27:17;;;;;;;14.10;2.50;;;;;;;2.13;100.00;100148.00;5225886;28;20478;-80
2021/01/13 06:29:51;;;;;;;17.75;2.85;;;;;;;2.18;100.00;100156.53;5207829;28;20075;-80
2021/01/13 06:32:32;;;;;;;16.40;3.40;;;;;;;2.16;100.00;100158.28;5225403;28;20024;-80
2021/01/13 06:35:04;;;;;;;19.70;3.33;;;;;;;2.06;100.00;100157.50;5225932;28;20021;-80
2021/01/13 06:37:37;;;;;;;15.55;2.80;;;;;;;1.93;100.00;100157.59;5225398;28;20025;-80
2021/01/13 06:40:36;;;;;;;16.95;2.85;;;;;;;1.86;100.00;100161.09;5225366;28;20032;-80
2021/01/13 06:43:11;;;;;;;17.02;3.42;;;;;;;1.81;100.00;100152.56;5221325;28;20656;-80
2021/01/13 06:45:42;;;;;;;16.60;3.10;;;;;;;1.87;100.00;100162.81;5224838;28;20032;-80
2021/01/13 06:48:13;;;;;;;20.30;4.03;;;;;;;1.82;100.00;100156.84;5220982;28;20479;-79
2021/01/13 06:50:43;;;;;;;16.20;3.67;;;;;;;1.84;100.00;100157.69;5227204;28;20033;-79
2021/01/13 06:53:13;;;;;;;17.27;4.35;;;;;;;1.96;100.00;100160.19;5227112;28;20032;-79
2021/01/13 06:55:47;;;;;;;15.02;3.35;;;;;;;1.88;100.00;100162.81;5231829;28;20017;-79
2021/01/13 06:58:19;;;;;;;16.08;3.38;;;;;;;1.89;100.00;100164.53;5236360;28;20020;-79
2021/01/13 07:01:00;;;;;;;17.02;3.45;;;;;;;1.91;100.00;100162.78;5238596;28;20021;-79
2021/01/13 07:03:32;;;;;;;19.85;3.80;;;;;;;1.89;100.00;100158.50;5233389;28;20109;-80
2021/01/13 07:06:09;;;;;;;17.52;3.72;;;;;;;1.90;100.00;100161.06;5233755;28;20029;-79
2021/01/13 07:08:39;;;;;;;24.20;3.58;;;;;;;2.04;100.00;100163.53;5229637;28;20099;-80
2021/01/13 07:11:11;;;;;;;18.80;3.33;;;;;;;2.03;100.00;100169.56;5228187;28;20056;-79
2021/01/13 07:13:47;;;;;;;22.95;3.53;;;;;;;2.13;100.00;100166.88;5225224;28;20031;-80
2021/01/13 07:16:25;;;;;;;21.42;3.42;;;;;;;2.10;100.00;100173.78;5224893;28;20017;-80
2021/01/13 07:18:57;;;;;;;22.05;3.22;;;;;;;2.21;100.00;100166.81;5224760;28;20107;-79
2021/01/13 07:21:37;;;;;;;17.98;3.33;;;;;;;2.21;100.00;100167.69;5226913;28;20025;-80
2021/01/13 07:24:15;;;;;;;17.15;3.22;;;;;;;2.19;100.00;100173.72;5225857;28;20013;-80
2021/01/13 07:26:45;;;;;;;11.88;2.92;;;;;;;2.29;100.00;100160.72;5209140;28;20029;-79
2021/01/13 07:29:15;;;;;;;23.15;4.05;;;;;;;2.30;100.00;100157.28;5227252;28;20035;-80
2021/01/13 07:31:46;;;;;;;14.93;2.80;;;;;;;2.37;100.00;100168.41;5228185;28;20419;-79
2021/01/13 07:34:29;;;;;;;15.90;3.80;;;;;;;2.38;100.00;100170.97;5226955;28;20048;-79
2021/01/13 07:37:13;;;;;;;18.45;3.40;;;;;;;2.42;100.00;100161.47;5228830;28;20032;-80
2021/01/13 07:39:58;;;;;;;15.32;3.38;;;;;;;2.39;100.00;100164.06;5230293;28;20036;-79
2021/01/13 07:42:39;;;;;;;15.45;2.80;;;;;;;2.34;100.00;100174.41;5231849;28;20116;-79
2021/01/13 07:45:13;;;;;;;14.07;3.10;;;;;;;2.40;100.00;100169.22;5209470;28;20021;-80
2021/01/13 07:47:46;;;;;;;8.52;2.22;;;;;;;2.38;100.00;100165.81;5228246;28;20028;-79
2021/01/13 07:50:18;;;;;;;12.45;2.97;;;;;;;2.37;100.00;100171.81;5232134;28;20036;-80
2021/01/13 07:52:50;;;;;;;14.50;3.25;;;;;;;2.50;100.00;100173.41;5231544;28;20036;-79
2021/01/13 07:55:24;;;;;;;10.95;3.05;;;;;;;2.34;100.00;100169.25;5232346;28;20031;-79
2021/01/13 07:57:56;;;;;;;15.68;3.55;;;;;;;2.38;100.00;100170.09;5231512;28;20028;-79
2021/01/13 08:00:31;;;;;;;21.00;3.35;;;;;;;2.36;100.00;100174.41;5225985;28;20103;-81
2021/01/13 08:03:59;;;;;;;16.00;3.13;;;;;;;2.38;100.00;100183.00;5230374;28;20101;-79
2021/01/13 08:06:32;;;;;;;12.32;3.25;;;;;;;2.35;100.00;100176.13;5209278;28;20107;-80
2021/01/13 08:09:17;;;;;;;18.15;3.65;;;;;;;2.42;100.00;100171.78;5227905;28;20068;-80
2021/01/13 08:12:05;;;;;;;20.05;4.88;;;;;;;2.37;100.00;100168.41;5230156;28;20052;-79
2021/01/13 08:14:58;;;;;;;20.75;3.70;;;;;;;2.51;100.00;100171.69;5230048;28;20032;-79
2021/01/13 08:18:09;;;;;;;21.20;3.95;;;;;;;2.40;100.00;100186.41;5224131;28;20419;-79
2021/01/13 08:21:01;;;;;;;18.73;3.60;;;;;;;2.35;100.00;100177.88;5231452;28;20024;-79
2021/01/13 08:23:47;;;;;;;22.15;3.70;;;;;;;2.45;100.00;100179.47;5230870;28;20056;-80
2021/01/13 08:26:18;;;;;;;15.02;3.47;;;;;;;2.40;100.00;100171.81;5230925;28;20025;-79
2021/01/13 08:28:51;;;;;;;21.73;3.78;;;;;;;2.36;100.00;100171.84;5230262;28;20025;-80
2021/01/13 08:31:23;;;;;;;15.07;3.28;;;;;;;2.47;100.00;100175.19;5231210;28;20020;-79
2021/01/13 08:34:06;;;;;;;15.70;3.90;;;;;;;2.44;100.00;100167.47;5230089;28;20067;-79
2021/01/13 08:36:39;;;;;;;17.10;4.03;;;;;;;2.57;100.00;100174.22;5230248;28;20395;-79
2021/01/13 08:39:14;;;;;;;19.17;3.95;;;;;;;2.54;100.00;100169.09;5230534;28;20395;-79
2021/01/13 08:41:45;;;;;;;;;;;;;;;2.49;100.00;100168.28;5230445;28;20036;-79
2021/01/13 08:44:17;;;;;;;14.02;3.45;;;;;;;2.67;100.00;100174.09;5231373;28;19990;-80
2021/01/13 08:47:00;;;;;;;17.80;3.78;;;;;;;2.66;100.00;100174.13;5230715;28;20025;-80
2021/01/13 08:49:32;;;;;;;18.17;3.80;;;;;;;2.75;100.00;100176.59;5234386;28;20044;-79
2021/01/13 08:52:16;;;;;;;14.35;3.70;;;;;;;2.73;100.00;100174.06;5215490;28;20025;-79
2021/01/13 08:54:56;;;;;;;19.08;4.57;;;;;;;2.79;100.00;100166.22;5231745;28;20032;-79
2021/01/13 08:57:27;;;;;;;10.77;3.13;;;;;;;2.84;100.00;100184.25;5233483;28;20023;-79
2021/01/13 09:00:08;;;;;;;11.88;3.03;;;;;;;2.87;100.00;100177.31;5231770;28;20028;-79
2021/01/13 09:02:57;;;;;;;15.45;3.92;;;;;;;2.85;100.00;100178.22;5231447;28;20090;-79
2021/01/13 09:05:35;;;;;;;14.13;3.20;;;;;;;2.87;100.00;100168.72;5231095;28;20033;-79
2021/01/13 09:08:10;;;;;;;12.98;3.05;;;;;;;2.91;100.00;100170.41;5231159;28;20081;-79
2021/01/13 09:10:46;;;;;;;10.63;2.95;;;;;;;2.89;100.00;100174.72;5233621;28;20028;-80
2021/01/13 09:13:43;;;;;;;12.10;3.30;;;;;;;2.87;100.00;100161.00;5232500;28;20116;-79
2021/01/13 09:16:22;;;;;;;11.05;3.38;;;;;;;2.88;100.00;100163.53;5232264;28;20036;-80
2021/01/13 09:18:58;;;;;;;11.65;3.60;;;;;;;2.94;100.00;100171.22;5216127;28;20075;-80
2021/01/13 09:21:42;;;;;;;17.45;4.15;;;;;;;2.91;100.00;100172.97;5233862;28;20029;-79
2021/01/13 09:24:18;;;;;;;13.60;3.40;;;;;;;2.95;100.00;100175.50;5232799;28;20290;-79
2021/01/13 09:26:56;;;;;;;16.23;3.67;;;;;;;3.03;100.00;100178.00;5233284;28;20041;-80
2021/01/13 09:29:28;;;;;;;15.77;3.30;;;;;;;2.99;100.00;100173.75;5232937;28;20031;-80
2021/01/13 09:32:12;;;;;;;10.93;3.28;;;;;;;3.07;100.00;100179.66;5233643;28;20029;-79
2021/01/13 09:34:43;;;;;;;10.20;2.85;;;;;;;3.10;100.00;100174.47;5232620;28;20045;-79
2021/01/13 09:37:14;;;;;;;14.07;3.65;;;;;;;3.14;100.00;100169.25;5233060;28;20048;-79
2021/01/13 09:40:03;;;;;;;21.63;5.30;;;;;;;3.15;100.00;100173.53;5234601;28;20025;-79
2021/01/13 09:42:40;;;;;;;18.38;5.03;;;;;;;3.25;100.00;100163.94;5234955;28;20036;-80
2021/01/13 09:45:11;;;;;;;17.15;7.03;;;;;;;3.37;100.00;100163.81;5233380;28;20021;-79
2021/01/13 09:47:41;;;;;;;18.30;4.93;;;;;;;3.35;100.00;100165.56;5233091;28;20029;-80
2021/01/13 09:50:13;;;;;;;15.85;3.70;;;;;;;3.24;100.00;100157.09;5235213;28;20028;-80
2021/01/13 09:52:44;;;;;;;10.73;3.55;;;;;;;3.22;100.00;100166.56;5235530;28;20024;-80
2021/01/13 09:55:15;;;;;;;15.55;3.42;;;;;;;3.28;100.00;100169.06;5234696;28;20024;-80
2021/01/13 09:57:49;;;;;;;17.50;3.53;;;;;;;3.24;100.00;100172.56;5231126;28;20108;-79
2021/01/13 10:00:27;;;;;;;12.75;3.13;;;;;;;3.32;100.00;100175.91;5232277;28;20025;-80
2021/01/13 10:02:59;;;;;;;13.75;4.10;;;;;;;3.38;100.00;100171.50;5233297;28;20085;-80
2021/01/13 10:05:31;;;;;;;16.05;3.50;;;;;;;3.37;100.00;100158.63;5231756;28;20684;-80
2021/01/13 10:08:02;;;;;;;12.27;3.30;;;;;;;3.45;100.00;100164.53;5229750;28;20021;-80
2021/01/13 10:10:33;;;;;;;12.80;3.13;;;;;;;3.54;100.00;100151.50;5231649;28;20051;-80
2021/01/13 10:13:05;;;;;;;10.60;3.05;;;;;;;3.58;100.00;100148.88;5232389;28;20104;-80
2021/01/13 10:15:35;;;;;;;12.07;3.30;;;;;;;3.64;100.00;100144.44;5232551;28;20391;-80
2021/01/13 10:18:06;;;;;;;11.65;4.35;;;;;;;3.58;100.00;100154.88;5232563;28;20021;-80
2021/01/13 10:20:37;;;;;;;10.82;2.92;;;;;;;3.56;100.00;100144.59;5232717;28;20032;-80
2021/01/13 10:23:07;;;;;;;10.55;3.15;;;;;;;3.47;100.00;100144.69;5231953;28;20025;-80
2021/01/13 10:25:38;;;;;;;9.60;2.80;;;;;;;3.56;100.00;100136.84;5233253;28;20036;-80
2021/01/13 10:28:10;;;;;;;9.27;2.55;;;;;;;3.62;100.00;100129.84;5233053;28;20036;-81
2021/01/13 10:30:40;;;;;;;12.73;2.72;;;;;;;3.62;100.00;100129.84;5233671;28;20033;-80
2021/01/13 10:33:11;;;;;;;11.52;2.58;;;;;;;3.67;100.00;100117.72;5232014;28;20031;-80
2021/01/13 10:35:41;;;;;;;8.80;2.53;;;;;;;3.70;100.00;100123.69;5208888;28;20018;-80
2021/01/13 10:38:20;;;;;;;10.98;2.92;;;;;;;3.87;100.00;100126.88;5230068;28;20657;-80
2021/01/13 10:40:52;;;;;;;8.93;2.45;;;;;;;3.75;100.00;100116.72;5224754;28;20024;-79
2021/01/13 10:43:26;;;;;;;8.10;2.42;;;;;;;3.74;100.00;100117.59;5224546;28;20049;-80
2021/01/13 10:45:59;;;;;;;8.55;2.55;;;;;;;3.81;100.00;100120.94;5223697;28;20473;-80
2021/01/13 10:48:30;;;;;;;10.30;2.33;;;;;;;3.91;100.00;100113.00;5224674;28;20032;-79
2021/01/13 10:51:07;;;;;;;7.50;2.17;;;;;;;3.82;100.00;100110.56;5224148;28;20017;-79
2021/01/13 10:53:45;;;;;;;8.90;2.50;;;;;;;3.72;100.00;100127.09;5223761;28;20025;-80
2021/01/13 10:56:17;;;;;;;11.32;2.72;;;;;;;3.53;100.00;100119.66;5224094;28;20028;-80
2021/01/13 10:58:50;;;;;;;8.63;2.45;;;;;;;3.58;100.00;100118.72;5224164;28;20525;-80
2021/01/13 11:01:25;;;;;;;10.10;3.05;;;;;;;3.37;100.00;100128.47;5223161;28;20043;-78
2021/01/13 11:03:55;;;;;;;9.55;2.58;;;;;;;3.30;100.00;100113.09;5221818;28;20396;-81
2021/01/13 11:06:26;;;;;;;10.80;2.90;;;;;;;3.36;100.00;100115.63;5224990;28;20037;-80
2021/01/13 11:08:58;;;;;;;15.02;3.40;;;;;;;3.48;100.00;100118.00;5221335;28;20511;-79
2021/01/13 11:11:30;;;;;;;6.93;2.67;;;;;;;3.58;100.00;100106.66;5222120;28;20021;-79
2021/01/13 11:14:00;;;;;;;12.48;3.25;;;;;;;3.57;100.00;100102.38;5222673;28;20028;-80
2021/01/13 11:16:31;;;;;;;10.48;2.47;;;;;;;3.59;100.00;100097.16;5205758;28;20021;-80
2021/01/13 11:19:01;;;;;;;14.60;3.33;;;;;;;3.71;100.00;100109.03;5223211;28;20017;-80
2021/01/13 11:21:39;;;;;;;11.23;2.05;;;;;;;3.77;100.00;100085.69;5222484;28;20040;-79
2021/01/13 11:24:10;;;;;;;9.82;2.53;;;;;;;3.87;100.00;100090.69;5225883;28;20032;-80
2021/01/13 11:26:44;;;;;;;12.07;2.45;;;;;;;3.93;100.00;100088.00;5226531;28;20029;-78
2021/01/13 11:29:15;;;;;;;12.18;2.88;;;;;;;3.93;100.00;100080.25;5225661;28;20021;-78
2021/01/13 11:31:45;;;;;;;10.07;2.90;;;;;;;3.85;100.00;100078.66;5225976;28;20523;-78
2021/01/13 11:34:20;;;;;;;11.85;2.58;;;;;;;3.89;100.00;100072.56;5224664;28;20025;-78
2021/01/13 11:37:13;;;;;;;13.52;3.05;;;;;;;3.76;100.00;100066.75;5222085;28;20021;-77
2021/01/13 11:39:48;;;;;;;15.43;2.70;;;;;;;3.80;100.00;100065.81;5222668;28;20025;-80
2021/01/13 11:42:41;;;;;;;9.43;2.60;;;;;;;3.87;100.00;100049.34;5224973;28;20025;-80
2021/01/13 11:45:17;;;;;;;12.52;3.03;;;;;;;3.88;100.00;100058.78;5192707;28;20028;-80
2021/01/13 11:47:54;;;;;;;10.80;2.40;;;;;;;3.84;100.00;100051.13;5208718;28;20032;-80
2021/01/13 11:50:25;;;;;;;10.48;2.65;;;;;;;3.86;100.00;100042.47;5206568;28;20491;-80
2021/01/13 11:53:03;;;;;;;11.93;2.75;;;;;;;3.88;100.00;100040.72;5225189;28;20055;-80
2021/01/13 11:55:34;;;;;;;15.48;2.92;;;;;;;3.89;100.00;100047.59;5230240;28;20033;-79
2021/01/13 11:58:04;;;;;;;11.60;2.67;;;;;;;4.11;100.00;100041.13;5228599;28;20183;-79
2021/01/13 12:00:39;;;;;;;17.23;4.50;;;;;;;4.16;100.00;100021.22;5225394;28;20149;-80